Time;durP1;ratioP1;P1;durP2;ratioP2;P2;SDS_P1;SDS_P2;PMS_P1;PMS_P2;Temp;Humidity;BMP_temperature;BMP_pressure;BME280_temperature;BME280_humidity;BME280_pressure;Samples;Min_cycle;Max_cycle;Signal;HPM_P1;HPM_P2
2021/05/06 00:02:02;;;;;;;;;1.00;1.00;;;;;;;;3521354;39;114094;-77
2021/05/06 00:32:12;;;;;;;;;1.00;1.00;;;;;;;;3516711;40;111754;-77
2021/05/06 00:34:38;;;;;;;;;1.00;1.00;;;;;;;;3516685;40;113559;-76
2021/05/06 00:37:04;;;;;;;;;1.00;1.00;;;;;;;;3516870;40;114263;-76
2021/05/06 00:39:34;;;;;;;;;2.50;1.00;;;;;;;;3517388;39;112237;-77
2021/05/06 00:42:11;;;;;;;;;3.00;0.00;;;;;;;;3517822;40;113045;-77
2021/05/06 00:56:09;;;;;;;;;0.00;0.00;;;;;;;;3517716;40;113160;-76
2021/05/06 01:01:47;;;;;;;;;1.75;0.00;;;;;;;;3529460;39;112020;-76
2021/05/06 01:04:22;;;;;;;;;2.75;1.00;;;;;;;;3517434;40;113448;-76
2021/05/06 01:06:56;;;;;;;;;2.00;1.00;;;;;;;;3520567;39;113176;-76
2021/05/06 01:09:26;;;;;;;;;0.00;0.00;;;;;;;;3518318;39;113202;-75
2021/05/06 01:11:55;;;;;;;;;1.00;0.00;;;;;;;;3518059;40;113826;-75
2021/05/06 01:14:21;;;;;;;;;2.00;0.25;;;;;;;;3519907;39;113908;-76
2021/05/06 01:16:47;;;;;;;;;4.00;1.00;;;;;;;;3518319;39;113141;-76
2021/05/06 01:19:14;;;;;;;;;1.75;1.00;;;;;;;;3517229;40;113889;-76
2021/05/06 01:21:41;;;;;;;;;1.50;1.50;;;;;;;;3518681;39;111743;-76
2021/05/06 01:24:07;;;;;;;;;1.00;0.00;;;;;;;;3519365;40;113519;-76
2021/05/06 01:26:36;;;;;;;;;0.50;0.50;;;;;;;;3517320;40;112800;-78
2021/05/06 01:29:06;;;;;;;;;0.50;0.50;;;;;;;;3518928;39;111950;-76
2021/05/06 01:31:37;;;;;;;;;2.00;1.00;;;;;;;;3517483;40;113256;-77
2021/05/06 01:34:11;;;;;;;;;1.50;1.50;;;;;;;;3519148;40;113820;-77
2021/05/06 01:36:40;;;;;;;;;1.00;0.50;;;;;;;;3520154;40;111990;-76
2021/05/06 01:41:55;;;;;;;;;1.00;1.00;;;;;;;;3492979;40;112062;-76
2021/05/06 01:44:44;;;;;;;;;1.00;1.00;;;;;;;;3517115;39;113641;-76
2021/05/06 01:47:16;;;;;;;;;1.00;1.00;;;;;;;;3516228;39;114514;-76
2021/05/06 01:58:06;;;;;;;;;5.00;1.25;;;;;;;;3520631;39;111671;-77
2021/05/06 02:00:35;;;;;;;;;1.00;1.00;;;;;;;;3519393;39;113948;-76
2021/05/06 02:03:01;;;;;;;;;1.00;1.00;;;;;;;;3518763;39;112724;-76
2021/05/06 02:05:27;;;;;;;;;1.50;1.50;;;;;;;;3519685;39;113579;-78
2021/05/06 02:07:54;;;;;;;;;4.50;1.00;;;;;;;;3518281;40;113861;-76
2021/05/06 02:10:24;;;;;;;;;4.00;4.00;;;;;;;;3518519;39;111955;-76
2021/05/06 02:12:50;;;;;;;;;5.00;1.00;;;;;;;;3519101;39;117132;-76
2021/05/06 02:15:18;;;;;;;;;3.50;1.25;;;;;;;;3517878;39;114255;-75
2021/05/06 02:17:45;;;;;;;;;0.25;0.00;;;;;;;;3519115;39;112649;-77
2021/05/06 02:20:12;;;;;;;;;1.00;1.00;;;;;;;;3520330;39;113503;-75
2021/05/06 02:22:38;;;;;;;;;2.00;1.00;;;;;;;;3517946;40;111883;-75
2021/05/06 02:25:05;;;;;;;;;1.50;1.00;;;;;;;;3517840;40;113262;-77
2021/05/06 02:27:32;;;;;;;;;1.25;1.25;;;;;;;;3517969;40;113973;-77
2021/05/06 02:29:59;;;;;;;;;1.25;1.00;;;;;;;;3518134;40;112075;-74
2021/05/06 02:32:25;;;;;;;;;2.00;1.00;;;;;;;;3518720;40;113333;-75
2021/05/06 02:34:51;;;;;;;;;1.00;1.00;;;;;;;;3518504;40;113444;-75
2021/05/06 02:37:18;;;;;;;;;1.00;1.00;;;;;;;;3518172;40;112329;-75
2021/05/06 02:39:45;;;;;;;;;4.25;1.50;;;;;;;;3519037;39;113306;-74
2021/05/06 02:42:12;;;;;;;;;0.50;0.50;;;;;;;;3520333;39;113915;-75
2021/05/06 02:44:39;;;;;;;;;2.00;1.00;;;;;;;;3519864;40;113927;-75
2021/05/06 02:47:05;;;;;;;;;1.00;1.00;;;;;;;;3517362;40;114352;-75
2021/05/06 02:49:33;;;;;;;;;0.50;0.50;;;;;;;;3519640;40;112034;-75
2021/05/06 02:52:05;;;;;;;;;2.00;0.00;;;;;;;;3518168;40;113279;-76
2021/05/06 02:54:36;;;;;;;;;1.00;1.00;;;;;;;;3519117;39;113789;-76
2021/05/06 02:57:08;;;;;;;;;4.00;1.25;;;;;;;;3517936;39;112076;-75
2021/05/06 03:05:25;;;;;;;;;4.00;1.00;;;;;;;;3521594;40;111797;-76
2021/05/06 03:07:57;;;;;;;;;1.00;1.00;;;;;;;;3518149;39;113957;-76
2021/05/06 03:10:33;;;;;;;;;3.50;1.50;;;;;;;;3518814;39;112181;-79
2021/05/06 03:13:17;;;;;;;;;4.00;2.00;;;;;;;;3518501;39;113265;-80
2021/05/06 03:22:40;;;;;;;;;1.75;1.00;;;;;;;;3518799;40;112023;-76
2021/05/06 03:24:26;;;;;;;;;1.25;1.00;;;;;;;;3516520;40;113618;-77
2021/05/06 03:26:52;;;;;;;;;2.00;1.50;;;;;;;;3520047;40;112380;-76
2021/05/06 03:29:23;;;;;;;;;4.00;1.50;;;;;;;;3529536;40;113395;-77
2021/05/06 03:42:50;;;;;;;;;4.00;2.75;;;;;;;;3520161;40;112561;-74
2021/05/06 03:48:34;;;;;;;;;2.25;1.50;;;;;;;;3513322;39;112017;-76
2021/05/06 04:16:12;;;;;;;;;5.20;4.20;;;;;;;;3562814;39;112254;-74
2021/05/06 04:18:39;;;;;;;;;4.00;4.00;;;;;;;;3555893;39;114465;-74
2021/05/06 04:26:38;;;;;;;;;4.00;4.00;;;;;;;;3556792;39;112256;-76
2021/05/06 04:29:45;;;;;;;;;3.25;3.25;;;;;;;;3559333;39;111855;-76
2021/05/06 04:37:36;;;;;;;;;8.50;4.00;;;;;;;;3563425;39;111904;-76
2021/05/06 04:40:05;;;;;;;;;8.00;8.00;;;;;;;;3557159;39;113905;-76
2021/05/06 04:42:48;;;;;;;;;7.50;6.00;;;;;;;;3558435;39;112301;-74
2021/05/06 04:45:41;;;;;;;;;5.50;3.25;;;;;;;;3559070;39;113276;-76
2021/05/06 04:53:40;;;;;;;;;3.75;3.75;;;;;;;;3559354;39;113477;-76
2021/05/06 04:56:16;;;;;;;;;6.00;4.00;;;;;;;;3557594;39;113647;-75
2021/05/06 04:59:11;;;;;;;;;4.00;4.00;;;;;;;;3557676;39;112332;-76
2021/05/06 05:04:29;;;;;;;;;6.75;6.75;;;;;;;;3558743;39;112011;-75
2021/05/06 05:07:00;;;;;;;;;4.00;3.00;;;;;;;;3561617;39;113859;-75
2021/05/06 05:09:46;;;;;;;;;4.00;3.75;;;;;;;;3555776;39;114087;-75
2021/05/06 05:12:21;;;;;;;;;4.50;3.75;;;;;;;;3558293;39;112049;-75
2021/05/06 05:17:45;;;;;;;;;7.00;6.75;;;;;;;;3558129;39;114275;-74
2021/05/06 05:20:17;;;;;;;;;5.50;4.00;;;;;;;;3561229;39;111926;-78
2021/05/06 05:25:30;;;;;;;;;6.00;6.00;;;;;;;;3560504;39;112268;-78
2021/05/06 05:27:57;;;;;;;;;7.00;7.00;;;;;;;;3550786;39;113756;-76
2021/05/06 05:30:25;;;;;;;;;5.00;4.50;;;;;;;;3553748;39;113819;-76
2021/05/06 05:32:51;;;;;;;;;9.50;6.75;;;;;;;;3550973;39;111835;-76
2021/05/06 05:35:27;;;;;;;;;4.75;4.75;;;;;;;;3551647;39;113442;-75
2021/05/06 05:38:02;;;;;;;;;6.25;5.50;;;;;;;;3553803;39;113819;-76
2021/05/06 05:40:34;;;;;;;;;4.75;4.75;;;;;;;;3555611;39;112155;-75
2021/05/06 05:43:06;;;;;;;;;7.75;4.00;;;;;;;;3552884;39;113730;-75
2021/05/06 05:56:26;;;;;;;;;8.75;7.00;;;;;;;;3547749;39;112540;-74
2021/05/06 05:58:52;;;;;;;;;6.00;6.00;;;;;;;;3548977;39;114191;-71
2021/05/06 06:01:18;;;;;;;;;7.50;6.25;;;;;;;;3549120;39;111831;-74
2021/05/06 06:03:44;;;;;;;;;7.00;6.00;;;;;;;;3548740;39;113660;-73
2021/05/06 06:06:11;;;;;;;;;6.50;5.00;;;;;;;;3549786;39;113869;-72
2021/05/06 06:08:37;;;;;;;;;8.00;7.00;;;;;;;;3548298;39;111905;-74
2021/05/06 06:11:03;;;;;;;;;10.00;6.25;;;;;;;;3552768;39;113236;-73
2021/05/06 06:13:29;;;;;;;;;7.75;7.50;;;;;;;;3549271;39;111910;-73
2021/05/06 06:16:00;;;;;;;;;22.50;20.00;;;;;;;;3550173;39;113080;-74
2021/05/06 06:18:32;;;;;;;;;12.50;8.75;;;;;;;;3549502;39;113800;-79
2021/05/06 06:21:03;;;;;;;;;24.25;16.25;;;;;;;;3548353;39;111804;-73
2021/05/06 06:23:30;;;;;;;;;4.00;4.00;;;;;;;;3548770;39;113517;-73
2021/05/06 06:25:57;;;;;;;;;5.50;5.50;;;;;;;;3549178;39;114472;-72
2021/05/06 06:28:23;;;;;;;;;3.50;3.00;;;;;;;;3549008;39;112908;-72
2021/05/06 06:30:49;;;;;;;;;4.50;3.00;;;;;;;;3549117;39;113223;-73
2021/05/06 06:33:15;;;;;;;;;2.75;1.00;;;;;;;;3551709;39;111827;-72
2021/05/06 06:35:41;;;;;;;;;5.25;4.50;;;;;;;;3548365;39;113054;-73
2021/05/06 06:38:07;;;;;;;;;9.25;8.25;;;;;;;;3548982;39;113933;-74
2021/05/06 06:40:34;;;;;;;;;4.75;4.50;;;;;;;;3548450;39;111920;-73
2021/05/06 06:43:01;;;;;;;;;2.25;1.00;;;;;;;;3549849;39;113289;-72
2021/05/06 06:45:27;;;;;;;;;6.00;6.00;;;;;;;;3548550;39;113763;-72
2021/05/06 06:47:53;;;;;;;;;3.50;2.75;;;;;;;;3549033;39;111796;-73
2021/05/06 06:50:19;;;;;;;;;2.75;2.75;;;;;;;;3549372;39;113317;-74
2021/05/06 06:52:45;;;;;;;;;7.50;3.00;;;;;;;;3550959;39;114273;-73
2021/05/06 06:55:12;;;;;;;;;6.50;6.00;;;;;;;;3549659;39;113069;-73
2021/05/06 06:57:39;;;;;;;;;4.50;3.00;;;;;;;;3547786;39;114318;-74
2021/05/06 07:00:06;;;;;;;;;5.00;5.00;;;;;;;;3550089;39;112041;-73
2021/05/06 07:02:32;;;;;;;;;4.00;2.25;;;;;;;;3548317;39;113203;-71
2021/05/06 07:04:58;;;;;;;;;4.25;3.25;;;;;;;;3549063;39;114058;-75
2021/05/06 07:07:24;;;;;;;;;8.00;8.00;;;;;;;;3549048;39;112032;-72
2021/05/06 07:09:50;;;;;;;;;4.50;3.00;;;;;;;;3548992;39;113152;-73
2021/05/06 07:12:17;;;;;;;;;3.00;3.00;;;;;;;;3549053;39;113975;-75
2021/05/06 07:14:44;;;;;;;;;3.50;2.00;;;;;;;;3553759;39;111909;-76
2021/05/06 07:17:10;;;;;;;;;12.25;10.25;;;;;;;;3550029;39;114243;-76
2021/05/06 07:19:36;;;;;;;;;3.00;2.25;;;;;;;;3549938;39;112142;-77
2021/05/06 07:22:03;;;;;;;;;4.75;2.25;;;;;;;;3548720;39;113944;-78
2021/05/06 07:24:29;;;;;;;;;2.75;1.00;;;;;;;;3549130;39;113848;-79
2021/05/06 07:26:55;;;;;;;;;5.00;5.00;;;;;;;;3550149;39;112991;-78
2021/05/06 07:29:21;;;;;;;;;5.00;4.00;;;;;;;;3549262;39;113331;-77
2021/05/06 07:31:50;;;;;;;;;7.50;6.50;;;;;;;;3548510;39;113908;-76
2021/05/06 07:34:16;;;;;;;;;3.00;3.00;;;;;;;;3550148;39;111814;-82
2021/05/06 07:36:42;;;;;;;;;6.25;3.25;;;;;;;;3555499;39;113367;-75
2021/05/06 07:39:09;;;;;;;;;3.00;3.00;;;;;;;;3548775;39;112163;-79
2021/05/06 07:41:35;;;;;;;;;7.00;5.75;;;;;;;;3549892;39;113211;-79
2021/05/06 07:44:01;;;;;;;;;8.50;5.50;;;;;;;;3548355;39;113793;-77
2021/05/06 07:46:27;;;;;;;;;2.50;2.50;;;;;;;;3549837;39;111862;-78
2021/05/06 07:48:54;;;;;;;;;5.75;4.25;;;;;;;;3548826;39;112838;-75
2021/05/06 07:51:21;;;;;;;;;4.25;2.50;;;;;;;;3550013;39;114046;-78
2021/05/06 07:53:48;;;;;;;;;3.00;2.00;;;;;;;;3549517;39;112374;-72
2021/05/06 07:56:15;;;;;;;;;2.00;2.00;;;;;;;;3549289;39;113399;-77
2021/05/06 07:58:41;;;;;;;;;4.50;1.00;;;;;;;;3551841;39;113825;-76
2021/05/06 08:01:08;;;;;;;;;1.00;1.00;;;;;;;;3548284;39;113283;-76
2021/05/06 08:03:34;;;;;;;;;1.00;1.00;;;;;;;;3549466;39;114016;-76
2021/05/06 08:06:01;;;;;;;;;1.00;1.00;;;;;;;;3546568;39;113701;-72
2021/05/06 08:08:28;;;;;;;;;1.25;0.75;;;;;;;;3548727;39;113413;-73
2021/05/06 08:10:55;;;;;;;;;0.25;0.25;;;;;;;;3549411;39;113885;-73
2021/05/06 08:13:22;;;;;;;;;1.00;1.00;;;;;;;;3548503;39;111774;-73
2021/05/06 08:15:48;;;;;;;;;2.00;1.25;;;;;;;;3549271;39;113968;-73
2021/05/06 08:18:14;;;;;;;;;2.50;1.00;;;;;;;;3547662;39;113999;-72
2021/05/06 08:20:41;;;;;;;;;1.25;1.25;;;;;;;;3552199;39;111906;-74
2021/05/06 08:23:09;;;;;;;;;2.00;1.00;;;;;;;;3545430;39;113824;-74
2021/05/06 08:25:36;;;;;;;;;1.25;1.25;;;;;;;;3547977;39;111871;-74
2021/05/06 08:28:02;;;;;;;;;4.75;4.00;;;;;;;;3548933;39;113621;-73
2021/05/06 08:30:28;;;;;;;;;1.00;1.00;;;;;;;;3547729;39;113922;-74
2021/05/06 08:32:54;;;;;;;;;2.00;2.00;;;;;;;;3551006;39;112770;-74
2021/05/06 08:35:20;;;;;;;;;3.50;1.00;;;;;;;;3549091;39;114415;-75
2021/05/06 08:37:46;;;;;;;;;1.00;1.00;;;;;;;;3551872;39;115482;-72
2021/05/06 08:40:13;;;;;;;;;1.00;1.00;;;;;;;;3555156;39;111912;-73
2021/05/06 08:42:40;;;;;;;;;3.00;1.00;;;;;;;;3552210;39;113965;-73
2021/05/06 08:45:07;;;;;;;;;3.00;1.67;;;;;;;;3552678;39;111981;-74
2021/05/06 08:47:33;;;;;;;;;2.00;2.00;;;;;;;;3552220;39;113333;-73
2021/05/06 08:50:00;;;;;;;;;2.33;1.00;;;;;;;;3552181;39;113887;-73
2021/05/06 08:52:26;;;;;;;;;3.00;1.00;;;;;;;;3552467;39;112085;-72
2021/05/06 08:54:53;;;;;;;;;3.00;1.00;;;;;;;;3552536;39;113296;-72
2021/05/06 08:57:21;;;;;;;;;1.33;0.00;;;;;;;;3551521;39;115091;-71
2021/05/06 08:59:48;;;;;;;;;1.00;1.00;;;;;;;;3552377;39;112032;-72
2021/05/06 09:02:14;;;;;;;;;1.00;1.00;;;;;;;;3555543;39;113832;-72
2021/05/06 09:04:40;;;;;;;;;1.00;1.00;;;;;;;;3553733;39;111831;-72
2021/05/06 09:07:08;;;;;;;;;2.00;1.00;;;;;;;;3552605;39;113298;-71
2021/05/06 09:09:34;;;;;;;;;1.33;0.00;;;;;;;;3549736;39;113039;-75
2021/05/06 09:12:01;;;;;;;;;1.00;1.00;;;;;;;;3548937;39;112303;-73
2021/05/06 09:14:35;;;;;;;;;0.00;0.00;;;;;;;;3550760;39;113377;-75
2021/05/06 09:17:02;;;;;;;;;3.33;3.00;;;;;;;;3550999;39;114219;-74
2021/05/06 09:19:28;;;;;;;;;0.00;0.00;;;;;;;;3551332;39;113277;-73
2021/05/06 09:21:55;;;;;;;;;2.00;2.00;;;;;;;;3551785;39;113615;-78
2021/05/06 09:24:24;;;;;;;;;2.00;0.67;;;;;;;;3552065;39;113775;-73
2021/05/06 09:26:52;;;;;;;;;2.33;0.00;;;;;;;;3549820;39;114018;-74
2021/05/06 09:29:28;;;;;;;;;0.00;0.00;;;;;;;;3552679;39;113986;-74
2021/05/06 09:32:07;;;;;;;;;2.33;0.00;;;;;;;;3549474;39;112082;-73
2021/05/06 09:34:35;;;;;;;;;0.00;0.00;;;;;;;;3549640;39;114673;-75
2021/05/06 09:37:02;;;;;;;;;1.00;0.00;;;;;;;;3549226;39;113662;-76
2021/05/06 09:39:28;;;;;;;;;0.00;0.00;;;;;;;;3551121;39;112808;-73
2021/05/06 09:42:05;;;;;;;;;1.67;1.33;;;;;;;;3551434;39;113481;-76
2021/05/06 09:44:49;;;;;;;;;1.00;1.00;;;;;;;;3548184;39;113960;-75
2021/05/06 09:47:16;;;;;;;;;2.00;1.00;;;;;;;;3551938;39;111949;-73
2021/05/06 09:49:43;;;;;;;;;1.00;1.00;;;;;;;;3551923;39;113836;-73
2021/05/06 09:52:09;;;;;;;;;3.00;1.00;;;;;;;;3551566;39;112458;-73
2021/05/06 09:54:44;;;;;;;;;1.00;1.00;;;;;;;;3551490;39;113338;-73
2021/05/06 09:57:11;;;;;;;;;1.33;1.33;;;;;;;;3547609;39;113114;-73
2021/05/06 09:59:39;;;;;;;;;2.33;1.00;;;;;;;;3549352;39;112076;-73
2021/05/06 10:02:09;;;;;;;;;1.00;1.00;;;;;;;;3550373;39;113305;-72
2021/05/06 10:04:37;;;;;;;;;5.00;1.00;;;;;;;;3549271;39;113710;-72
2021/05/06 10:07:07;;;;;;;;;3.33;1.67;;;;;;;;3548844;39;111955;-72
2021/05/06 10:09:34;;;;;;;;;2.00;1.00;;;;;;;;3552095;39;113234;-72
2021/05/06 10:12:00;;;;;;;;;2.67;1.00;;;;;;;;3547416;39;111909;-73
2021/05/06 10:14:26;;;;;;;;;2.00;1.00;;;;;;;;3549980;39;113647;-73
2021/05/06 10:16:52;;;;;;;;;1.00;1.00;;;;;;;;3550895;39;113726;-72
2021/05/06 10:19:19;;;;;;;;;1.00;1.00;;;;;;;;3552553;39;111892;-72
2021/05/06 10:21:46;;;;;;;;;1.33;0.67;;;;;;;;3551064;39;113380;-73
2021/05/06 10:24:15;;;;;;;;;3.00;1.00;;;;;;;;3547888;39;114342;-72
2021/05/06 10:26:41;;;;;;;;;1.00;1.00;;;;;;;;3548718;39;111799;-72
2021/05/06 10:29:08;;;;;;;;;2.00;1.00;;;;;;;;3550272;39;113622;-73
2021/05/06 10:31:37;;;;;;;;;2.00;1.00;;;;;;;;3550903;39;114033;-73
2021/05/06 10:34:03;;;;;;;;;1.75;1.50;;;;;;;;3548594;39;112933;-72
2021/05/06 10:36:30;;;;;;;;;1.00;1.00;;;;;;;;3549475;39;114392;-70
2021/05/06 10:38:57;;;;;;;;;2.00;1.00;;;;;;;;3548692;39;112221;-73
2021/05/06 10:41:28;;;;;;;;;2.00;1.25;;;;;;;;3548811;39;113407;-72
2021/05/06 10:43:54;;;;;;;;;3.00;2.00;;;;;;;;3547728;39;113908;-72
2021/05/06 10:46:22;;;;;;;;;3.00;1.00;;;;;;;;3548431;39;111840;-72
2021/05/06 10:48:59;;;;;;;;;1.25;0.75;;;;;;;;3548601;39;113614;-73
2021/05/06 10:51:30;;;;;;;;;0.00;0.00;;;;;;;;3551213;39;113135;-72
2021/05/06 10:53:57;;;;;;;;;1.00;1.00;;;;;;;;3548014;39;113173;-72
2021/05/06 10:56:23;;;;;;;;;2.00;0.00;;;;;;;;3548375;39;113994;-71
2021/05/06 10:58:50;;;;;;;;;0.00;0.00;;;;;;;;3549722;39;112193;-76
2021/05/06 11:01:24;;;;;;;;;1.00;1.00;;;;;;;;3551093;39;113595;-83
2021/05/06 11:04:04;;;;;;;;;0.25;0.25;;;;;;;;3550662;39;113793;-85
2021/05/06 11:06:34;;;;;;;;;2.00;1.00;;;;;;;;3550016;39;112162;-75
2021/05/06 11:09:01;;;;;;;;;2.00;1.00;;;;;;;;3551219;39;113362;-77
2021/05/06 11:11:27;;;;;;;;;1.50;1.00;;;;;;;;3549700;39;114082;-77
2021/05/06 11:14:06;;;;;;;;;2.25;0.75;;;;;;;;3552873;39;111889;-77
2021/05/06 11:16:33;;;;;;;;;1.00;1.00;;;;;;;;3548459;39;114068;-74
2021/05/06 11:19:00;;;;;;;;;0.75;0.75;;;;;;;;3552850;39;112163;-77
2021/05/06 11:21:41;;;;;;;;;3.00;1.00;;;;;;;;3549064;39;112477;-72
2021/05/06 11:24:16;;;;;;;;;1.00;1.00;;;;;;;;3547482;39;113896;-73
2021/05/06 11:27:07;;;;;;;;;3.00;1.00;;;;;;;;3548379;39;113749;-72
2021/05/06 11:29:34;;;;;;;;;2.75;1.50;;;;;;;;3548073;39;113862;-73
2021/05/06 11:32:00;;;;;;;;;1.00;1.00;;;;;;;;3552044;39;113837;-73
2021/05/06 11:34:34;;;;;;;;;2.50;1.00;;;;;;;;3552913;39;112201;-73
2021/05/06 11:37:20;;;;;;;;;1.00;1.00;;;;;;;;3555114;39;113862;-74
2021/05/06 11:39:55;;;;;;;;;1.00;1.00;;;;;;;;3548725;39;111897;-73
2021/05/06 11:42:22;;;;;;;;;1.00;1.00;;;;;;;;3546926;39;112257;-75
2021/05/06 11:45:06;;;;;;;;;2.00;1.00;;;;;;;;3551380;39;113778;-73
2021/05/06 11:47:32;;;;;;;;;0.75;0.75;;;;;;;;3551952;39;111872;-72
2021/05/06 11:49:59;;;;;;;;;0.00;0.00;;;;;;;;3552995;39;114065;-73
2021/05/06 11:52:31;;;;;;;;;1.00;1.00;;;;;;;;3552658;39;114091;-71
2021/05/06 11:54:58;;;;;;;;;1.00;1.00;;;;;;;;3549247;39;113270;-73
2021/05/06 11:57:25;;;;;;;;;2.50;1.50;;;;;;;;3552880;39;113214;-73
2021/05/06 11:59:51;;;;;;;;;3.00;1.50;;;;;;;;3555065;39;115236;-74
2021/05/06 12:02:17;;;;;;;;;0.00;0.00;;;;;;;;3550142;39;113431;-73
2021/05/06 12:04:51;;;;;;;;;2.50;1.00;;;;;;;;3550472;39;113773;-71
2021/05/06 12:07:19;;;;;;;;;1.00;1.00;;;;;;;;3548569;39;111898;-72
2021/05/06 12:09:46;;;;;;;;;1.75;1.00;;;;;;;;3547470;39;113346;-73
2021/05/06 12:12:20;;;;;;;;;1.00;1.00;;;;;;;;3552122;39;114676;-72
2021/05/06 12:14:46;;;;;;;;;1.00;1.00;;;;;;;;3550569;39;112375;-72
2021/05/06 12:17:17;;;;;;;;;0.00;0.00;;;;;;;;3551139;39;113365;-72
2021/05/06 12:19:44;;;;;;;;;0.50;0.00;;;;;;;;3548600;39;113892;-72
2021/05/06 12:22:10;;;;;;;;;2.25;1.50;;;;;;;;3550662;39;112331;-73
2021/05/06 12:24:37;;;;;;;;;1.75;1.00;;;;;;;;3547565;39;114108;-72
2021/05/06 12:27:16;;;;;;;;;3.00;1.75;;;;;;;;3548146;39;111947;-72
2021/05/06 12:29:42;;;;;;;;;1.00;0.25;;;;;;;;3548430;39;113271;-72
2021/05/06 12:32:15;;;;;;;;;1.00;1.00;;;;;;;;3548661;39;113853;-76
2021/05/06 12:34:41;;;;;;;;;3.00;1.75;;;;;;;;3551634;39;112593;-76
2021/05/06 12:37:07;;;;;;;;;3.25;1.00;;;;;;;;3554119;39;113512;-75
2021/05/06 12:39:33;;;;;;;;;0.00;0.00;;;;;;;;3553938;39;113871;-75
2021/05/06 12:42:00;;;;;;;;;2.00;1.00;;;;;;;;3554077;39;112186;-70
2021/05/06 12:44:37;;;;;;;;;3.00;0.75;;;;;;;;3555868;39;113130;-74
2021/05/06 12:47:27;;;;;;;;;2.25;1.75;;;;;;;;3549154;39;113123;-74
2021/05/06 12:50:07;;;;;;;;;2.00;1.00;;;;;;;;3553154;39;113212;-73
2021/05/06 12:52:34;;;;;;;;;1.00;0.00;;;;;;;;3552571;39;114148;-73
2021/05/06 12:55:02;;;;;;;;;1.25;1.25;;;;;;;;3553756;39;112831;-74
2021/05/06 12:57:28;;;;;;;;;3.00;1.75;;;;;;;;3553821;39;113381;-74
2021/05/06 13:00:14;;;;;;;;;1.00;1.00;;;;;;;;3553245;39;113979;-74
2021/05/06 13:02:40;;;;;;;;;2.00;2.00;;;;;;;;3553314;39;112535;-73
2021/05/06 13:05:07;;;;;;;;;3.75;2.75;;;;;;;;3555935;39;113178;-72
2021/05/06 13:07:33;;;;;;;;;2.00;1.00;;;;;;;;3552923;39;111812;-73
2021/05/06 13:09:59;;;;;;;;;1.00;1.00;;;;;;;;3553611;39;113175;-73
2021/05/06 13:12:26;;;;;;;;;0.50;0.00;;;;;;;;3553229;39;114317;-72
2021/05/06 13:14:52;;;;;;;;;1.00;1.00;;;;;;;;3552979;39;112423;-72
2021/05/06 13:17:23;;;;;;;;;1.00;1.00;;;;;;;;3553605;39;113196;-72
2021/05/06 13:19:49;;;;;;;;;1.25;1.00;;;;;;;;3552326;39;114068;-73
2021/05/06 13:22:15;;;;;;;;;1.75;1.00;;;;;;;;3553548;39;112810;-76
2021/05/06 13:24:41;;;;;;;;;0.00;0.00;;;;;;;;3553857;39;112424;-72
2021/05/06 13:27:13;;;;;;;;;2.00;0.00;;;;;;;;3555764;39;114257;-73
2021/05/06 13:29:46;;;;;;;;;1.00;0.00;;;;;;;;3553702;39;113216;-72
2021/05/06 13:32:12;;;;;;;;;0.50;0.50;;;;;;;;3550519;39;114513;-73
2021/05/06 13:34:52;;;;;;;;;0.75;0.25;;;;;;;;3550774;39;111998;-72
2021/05/06 13:37:18;;;;;;;;;2.00;1.00;;;;;;;;3550616;39;113761;-73
2021/05/06 13:39:44;;;;;;;;;2.00;1.00;;;;;;;;3548528;39;114500;-74
2021/05/06 13:42:10;;;;;;;;;1.75;0.50;;;;;;;;3550329;39;112198;-75
2021/05/06 13:44:36;;;;;;;;;1.00;1.00;;;;;;;;3548627;39;113253;-71
2021/05/06 13:47:05;;;;;;;;;1.00;1.00;;;;;;;;3547975;39;113920;-72
2021/05/06 13:49:32;;;;;;;;;1.50;1.50;;;;;;;;3551562;39;112133;-71
2021/05/06 13:52:00;;;;;;;;;0.25;0.25;;;;;;;;3549758;39;114205;-72
2021/05/06 13:54:27;;;;;;;;;1.00;1.00;;;;;;;;3550357;39;113489;-72
2021/05/06 13:56:53;;;;;;;;;2.00;1.00;;;;;;;;3550220;39;113945;-73
2021/05/06 13:59:19;;;;;;;;;0.50;0.50;;;;;;;;3549067;39;113966;-73
2021/05/06 14:01:52;;;;;;;;;2.50;1.00;;;;;;;;3549240;39;111899;-74
2021/05/06 14:04:18;;;;;;;;;1.75;0.50;;;;;;;;3549780;39;113318;-68
2021/05/06 14:06:44;;;;;;;;;4.00;4.00;;;;;;;;3548489;39;113912;-68
2021/05/06 14:09:15;;;;;;;;;2.00;2.00;;;;;;;;3549926;39;112416;-70
2021/05/06 14:11:41;;;;;;;;;1.00;1.00;;;;;;;;3550904;39;113261;-71
2021/05/06 14:14:07;;;;;;;;;3.00;2.25;;;;;;;;3551296;39;111966;-68
2021/05/06 14:16:33;;;;;;;;;1.25;1.25;;;;;;;;3547843;39;113271;-69
2021/05/06 14:18:59;;;;;;;;;2.00;2.00;;;;;;;;3550675;39;113771;-68
2021/05/06 14:21:26;;;;;;;;;3.75;1.75;;;;;;;;3550110;39;111803;-68
2021/05/06 14:23:52;;;;;;;;;1.50;1.00;;;;;;;;3550099;39;114185;-69
2021/05/06 14:26:19;;;;;;;;;1.25;1.25;;;;;;;;3552567;39;114011;-68
2021/05/06 14:28:45;;;;;;;;;2.00;2.00;;;;;;;;3552456;39;114086;-68
2021/05/06 14:31:11;;;;;;;;;4.00;1.25;;;;;;;;3551155;39;114265;-68
2021/05/06 14:33:38;;;;;;;;;2.00;2.00;;;;;;;;3549855;39;114143;-68
2021/05/06 14:36:05;;;;;;;;;1.00;1.00;;;;;;;;3549712;39;113704;-68
2021/05/06 14:38:31;;;;;;;;;2.00;2.00;;;;;;;;3547427;39;113920;-69
2021/05/06 14:40:58;;;;;;;;;1.75;1.25;;;;;;;;3549077;39;112473;-69
2021/05/06 14:43:24;;;;;;;;;3.00;1.00;;;;;;;;3548728;39;113305;-69
2021/05/06 14:45:51;;;;;;;;;0.75;0.75;;;;;;;;3548457;39;113748;-69
2021/05/06 14:48:17;;;;;;;;;1.00;1.00;;;;;;;;3548549;39;112100;-69
2021/05/06 14:50:43;;;;;;;;;1.00;1.00;;;;;;;;3549056;39;113448;-69
2021/05/06 14:53:09;;;;;;;;;3.00;2.50;;;;;;;;3548534;39;113917;-70
2021/05/06 14:55:35;;;;;;;;;1.50;1.00;;;;;;;;3552627;39;113551;-69
2021/05/06 14:58:03;;;;;;;;;0.25;0.25;;;;;;;;3546958;39;114441;-69
2021/05/06 15:00:30;;;;;;;;;1.00;1.00;;;;;;;;3549355;39;111886;-69
2021/05/06 15:02:59;;;;;;;;;1.00;1.00;;;;;;;;3548189;39;113285;-68
2021/05/06 15:05:25;;;;;;;;;1.00;1.00;;;;;;;;3550034;39;113966;-68
2021/05/06 15:07:51;;;;;;;;;1.00;1.00;;;;;;;;3549272;39;112228;-69
2021/05/06 15:10:17;;;;;;;;;1.00;1.00;;;;;;;;3549065;39;113690;-69
2021/05/06 15:12:43;;;;;;;;;0.00;0.00;;;;;;;;3549018;39;113693;-67
2021/05/06 15:15:10;;;;;;;;;1.00;1.00;;;;;;;;3555117;39;111872;-69
2021/05/06 15:17:37;;;;;;;;;1.00;1.00;;;;;;;;3551764;39;114400;-69
2021/05/06 15:20:03;;;;;;;;;1.00;1.00;;;;;;;;3549708;39;111722;-69
2021/05/06 15:22:29;;;;;;;;;2.75;1.00;;;;;;;;3550367;39;113255;-69
2021/05/06 15:24:55;;;;;;;;;1.00;1.00;;;;;;;;3546390;39;114300;-69
2021/05/06 15:27:21;;;;;;;;;3.00;2.00;;;;;;;;3548276;39;111848;-69
2021/05/06 15:29:48;;;;;;;;;1.50;1.00;;;;;;;;3550083;39;114023;-69
2021/05/06 15:32:14;;;;;;;;;1.00;1.00;;;;;;;;3548481;39;114707;-67
2021/05/06 15:34:41;;;;;;;;;0.75;0.75;;;;;;;;3546899;39;112020;-68
2021/05/06 15:37:08;;;;;;;;;1.75;1.00;;;;;;;;3549175;39;113493;-68
2021/05/06 15:39:34;;;;;;;;;2.00;0.00;;;;;;;;3547324;39;111932;-67
2021/05/06 15:42:00;;;;;;;;;2.50;1.00;;;;;;;;3548065;39;113316;-68
2021/05/06 15:44:26;;;;;;;;;0.00;0.00;;;;;;;;3546675;39;114499;-69
2021/05/06 15:46:58;;;;;;;;;1.00;1.00;;;;;;;;3547968;39;112209;-68
2021/05/06 15:49:26;;;;;;;;;0.50;0.50;;;;;;;;3548436;39;112672;-68
2021/05/06 15:51:53;;;;;;;;;0.75;0.75;;;;;;;;3549559;39;113769;-68
2021/05/06 15:54:19;;;;;;;;;0.00;0.00;;;;;;;;3547929;39;112595;-74
2021/05/06 15:56:45;;;;;;;;;1.00;1.00;;;;;;;;3549053;39;113487;-74
2021/05/06 15:59:12;;;;;;;;;1.00;1.00;;;;;;;;3550499;39;115143;-75
2021/05/06 16:01:38;;;;;;;;;1.00;1.00;;;;;;;;3547936;39;113620;-72
2021/05/06 16:04:06;;;;;;;;;0.50;0.00;;;;;;;;3546013;39;113790;-72
2021/05/06 16:06:32;;;;;;;;;1.00;0.00;;;;;;;;3546329;39;112121;-71
2021/05/06 16:08:59;;;;;;;;;1.00;1.00;;;;;;;;3543759;39;112617;-71
2021/05/06 16:11:25;;;;;;;;;1.00;1.00;;;;;;;;3545007;39;114240;-72
2021/05/06 16:13:51;;;;;;;;;0.25;0.00;;;;;;;;3547906;39;112049;-72
2021/05/06 16:16:18;;;;;;;;;0.25;0.25;;;;;;;;3548085;39;113325;-73
2021/05/06 16:18:47;;;;;;;;;0.00;0.00;;;;;;;;3545520;39;112911;-76
2021/05/06 16:21:14;;;;;;;;;0.00;0.00;;;;;;;;3550623;39;111799;-73
2021/05/06 16:23:40;;;;;;;;;1.00;1.00;;;;;;;;3548060;39;114274;-73
2021/05/06 16:26:08;;;;;;;;;0.50;0.25;;;;;;;;3549038;39;111847;-72
2021/05/06 16:28:37;;;;;;;;;0.00;0.00;;;;;;;;3547242;39;113551;-73
2021/05/06 16:31:03;;;;;;;;;1.00;1.00;;;;;;;;3548764;39;114330;-72
2021/05/06 16:33:33;;;;;;;;;1.00;0.00;;;;;;;;3547169;39;111872;-71
2021/05/06 16:36:04;;;;;;;;;0.00;0.00;;;;;;;;3548405;39;112748;-72
2021/05/06 16:38:34;;;;;;;;;1.00;1.00;;;;;;;;3546514;39;113982;-72
2021/05/06 16:41:03;;;;;;;;;1.00;1.00;;;;;;;;3548692;39;111997;-72
2021/05/06 16:43:35;;;;;;;;;1.00;1.00;;;;;;;;3549486;39;112803;-73
2021/05/06 16:46:03;;;;;;;;;1.00;1.00;;;;;;;;3546540;39;112376;-70
2021/05/06 16:48:29;;;;;;;;;1.00;1.00;;;;;;;;3546954;39;113626;-73
2021/05/06 16:50:55;;;;;;;;;1.25;1.00;;;;;;;;3547493;39;113847;-76
2021/05/06 16:53:21;;;;;;;;;0.50;0.50;;;;;;;;3547062;39;111932;-72
2021/05/06 16:55:47;;;;;;;;;0.75;0.75;;;;;;;;3548124;39;115314;-72
2021/05/06 16:58:13;;;;;;;;;0.50;0.50;;;;;;;;3547539;39;113904;-72